Time;durP1;ratioP1;P1;durP2;ratioP2;P2;SDS_P1;SDS_P2;PMS_P1;PMS_P2;Temp;Humidity;BMP_temperature;BMP_pressure;BME280_temperature;BME280_humidity;BME280_pressure;Samples;Min_cycle;Max_cycle;Signal;HPM_P1;HPM_P2
2022/10/27 00:01:57;;;;;;;4.43;1.98;;;13.50;99.90;;;;;;5043872;28;20029;-74
2022/10/27 00:04:23;;;;;;;2.95;1.42;;;13.50;99.90;;;;;;5043538;28;20551;-74
2022/10/27 00:06:48;;;;;;;1.73;1.23;;;13.50;99.90;;;;;;5043454;28;20549;-74
2022/10/27 00:09:14;;;;;;;2.67;1.50;;;13.50;99.90;;;;;;5041765;28;20128;-74
2022/10/27 00:11:40;;;;;;;3.75;1.90;;;13.50;99.90;;;;;;5042590;28;20883;-74
2022/10/27 00:14:05;;;;;;;2.95;1.83;;;13.40;99.90;;;;;;5056150;28;20052;-74
2022/10/27 00:16:31;;;;;;;5.32;1.63;;;13.50;99.90;;;;;;5025605;28;20071;-74
2022/10/27 00:18:57;;;;;;;9.55;1.75;;;13.50;99.90;;;;;;5058737;28;20036;-74
2022/10/27 00:21:23;;;;;;;7.63;2.22;;;13.40;99.90;;;;;;5043654;28;20044;-74
2022/10/27 00:23:50;;;;;;;4.07;1.83;;;13.40;99.90;;;;;;5043411;28;20052;-74
2022/10/27 00:26:17;;;;;;;5.80;1.85;;;13.40;99.90;;;;;;5042179;28;20151;-74
2022/10/27 00:28:43;;;;;;;2.88;1.80;;;13.40;99.90;;;;;;5043011;28;20117;-74
2022/10/27 00:31:20;;;;;;;6.82;2.10;;;13.40;99.90;;;;;;5041865;28;20048;-74
2022/10/27 00:33:47;;;;;;;2.97;1.83;;;13.30;99.90;;;;;;5042060;28;20082;-74
2022/10/27 00:36:19;;;;;;;3.85;1.80;;;13.30;99.90;;;;;;5025845;28;20045;-74
2022/10/27 00:38:44;;;;;;;4.20;1.95;;;13.30;99.90;;;;;;5038589;28;20375;-74
2022/10/27 00:41:33;;;;;;;7.50;2.45;;;13.30;99.90;;;;;;5042498;28;20059;-74
2022/10/27 00:44:01;;;;;;;3.17;1.60;;;13.40;99.90;;;;;;5041562;28;20044;-74
2022/10/27 00:46:42;;;;;;;2.25;1.35;;;13.30;99.90;;;;;;5025543;28;20525;-74
2022/10/27 00:49:13;;;;;;;3.55;1.75;;;13.30;99.90;;;;;;5043031;28;20051;-74
2022/10/27 00:51:42;;;;;;;2.50;1.48;;;13.30;99.90;;;;;;5024074;28;20529;-74
2022/10/27 00:54:08;;;;;;;4.05;1.75;;;13.40;99.90;;;;;;5041592;28;20463;-74
2022/10/27 00:56:36;;;;;;;3.03;1.63;;;13.30;99.90;;;;;;5041849;28;20101;-74
2022/10/27 00:59:01;;;;;;;3.88;2.05;;;13.40;99.90;;;;;;5026289;28;20040;-74
2022/10/27 01:01:27;;;;;;;3.60;1.55;;;13.40;99.90;;;;;;5041407;28;20037;-74
2022/10/27 01:03:55;;;;;;;3.33;1.58;;;13.40;99.90;;;;;;5041988;28;20041;-74
2022/10/27 01:06:20;;;;;;;4.32;1.70;;;13.40;99.90;;;;;;5040891;28;20501;-74
2022/10/27 01:08:48;;;;;;;3.20;1.55;;;13.40;99.90;;;;;;5040417;28;20051;-74
2022/10/27 01:11:13;;;;;;;3.83;1.90;;;13.40;99.90;;;;;;5042402;28;20045;-74
2022/10/27 01:13:39;;;;;;;2.85;1.52;;;13.40;99.90;;;;;;5040575;28;20045;-74
2022/10/27 01:16:32;;;;;;;3.50;1.70;;;13.40;99.90;;;;;;5024439;28;20128;-74
2022/10/27 01:19:18;;;;;;;5.72;1.90;;;13.40;99.90;;;;;;5023449;28;20110;-74
2022/10/27 01:22:08;;;;;;;3.85;2.72;;;13.40;99.90;;;;;;5039128;28;20041;-74
2022/10/27 01:24:50;;;;;;;6.25;2.03;;;13.30;99.90;;;;;;5037830;28;20040;-74
2022/10/27 01:27:57;;;;;;;7.80;1.92;;;13.30;99.90;;;;;;5026376;28;20049;-74
2022/10/27 01:30:23;;;;;;;3.85;1.85;;;13.30;99.90;;;;;;5040737;28;20041;-74
2022/10/27 01:33:10;;;;;;;3.58;1.73;;;13.30;99.90;;;;;;5041436;28;20540;-74
2022/10/27 01:35:52;;;;;;;6.45;2.00;;;13.30;99.90;;;;;;5039405;28;20491;-74
2022/10/27 01:38:30;;;;;;;3.20;1.80;;;13.40;99.90;;;;;;5036713;28;20463;-74
2022/10/27 01:41:07;;;;;;;5.80;1.73;;;13.40;99.90;;;;;;5020271;28;20055;-74
2022/10/27 01:43:34;;;;;;;4.70;2.22;;;13.40;99.90;;;;;;5040769;28;20045;-74
2022/10/27 01:46:02;;;;;;;3.83;1.80;;;13.40;99.90;;;;;;5041635;28;20033;-74
2022/10/27 01:48:31;;;;;;;3.80;1.95;;;13.40;99.90;;;;;;5039549;28;20397;-73
2022/10/27 01:50:57;;;;;;;4.57;1.95;;;13.40;99.90;;;;;;5053348;28;20037;-74
2022/10/27 01:53:22;;;;;;;5.38;2.38;;;13.50;99.90;;;;;;5040679;28;20041;-74
2022/10/27 01:56:03;;;;;;;4.85;1.58;;;13.50;99.90;;;;;;5024965;28;20033;-74
2022/10/27 01:58:46;;;;;;;3.25;2.10;;;13.50;99.90;;;;;;5039040;28;20124;-74
2022/10/27 02:01:36;;;;;;;6.90;2.40;;;13.50;99.90;;;;;;5042084;28;20043;-74
2022/10/27 02:04:10;;;;;;;2.95;1.80;;;13.50;99.90;;;;;;5038482;28;21450;-74
2022/10/27 02:06:55;;;;;;;3.08;1.88;;;13.50;99.90;;;;;;5035061;28;20040;-74
2022/10/27 02:09:23;;;;;;;3.63;1.80;;;13.60;99.90;;;;;;5042819;28;20444;-74
2022/10/27 02:11:51;;;;;;;4.05;2.30;;;13.60;99.90;;;;;;5024100;28;20599;-74
2022/10/27 02:14:17;;;;;;;4.47;2.08;;;13.60;99.90;;;;;;5057158;28;20041;-74
2022/10/27 02:16:47;;;;;;;4.32;2.08;;;13.60;99.90;;;;;;5039489;28;20788;-74
2022/10/27 02:19:19;;;;;;;4.43;2.00;;;13.60;99.90;;;;;;5041335;28;20116;-74
2022/10/27 02:21:47;;;;;;;3.55;2.03;;;13.60;99.90;;;;;;5038993;28;20498;-74
2022/10/27 02:24:12;;;;;;;3.17;2.03;;;13.60;99.90;;;;;;5040945;28;20087;-74
2022/10/27 02:26:47;;;;;;;4.45;2.00;;;13.60;99.90;;;;;;5023374;28;20040;-74
2022/10/27 02:29:31;;;;;;;6.30;2.58;;;13.60;99.90;;;;;;5023041;28;20037;-74
2022/10/27 02:32:01;;;;;;;4.28;2.17;;;13.60;99.90;;;;;;5052554;28;20414;-74
2022/10/27 02:34:27;;;;;;;4.03;2.17;;;13.60;99.90;;;;;;5035909;28;20402;-74
2022/10/27 02:36:53;;;;;;;4.38;2.05;;;13.60;99.90;;;;;;5039335;28;20047;-74
2022/10/27 02:39:18;;;;;;;4.20;1.92;;;13.60;99.90;;;;;;5053757;28;20036;-74
2022/10/27 02:41:44;;;;;;;4.13;2.13;;;13.60;99.90;;;;;;5040455;28;20072;-74
2022/10/27 02:44:09;;;;;;;4.70;1.92;;;13.60;99.90;;;;;;5041275;28;20045;-74
2022/10/27 02:46:35;;;;;;;5.05;2.03;;;13.60;99.90;;;;;;5038730;28;20080;-74
2022/10/27 02:49:01;;;;;;;4.85;2.20;;;13.50;99.90;;;;;;5055568;28;20048;-74
2022/10/27 02:51:26;;;;;;;3.17;1.92;;;13.60;99.90;;;;;;5041509;28;20413;-74
2022/10/27 02:53:52;;;;;;;4.47;2.00;;;13.50;99.90;;;;;;5040358;28;20589;-74
2022/10/27 02:56:17;;;;;;;4.32;1.98;;;13.50;99.90;;;;;;5035395;28;20040;-74
2022/10/27 02:58:43;;;;;;;5.45;2.10;;;13.50;99.90;;;;;;5023542;28;20049;-73
2022/10/27 03:01:08;;;;;;;5.03;2.00;;;13.50;99.90;;;;;;5021291;28;20076;-74
2022/10/27 03:03:34;;;;;;;3.10;2.03;;;13.50;99.90;;;;;;5039754;28;20028;-74
2022/10/27 03:06:00;;;;;;;3.20;1.60;;;13.50;99.90;;;;;;5036838;28;20102;-74
2022/10/27 03:08:25;;;;;;;3.95;1.95;;;13.50;99.90;;;;;;5040672;28;20052;-74
2022/10/27 03:10:51;;;;;;;3.67;2.00;;;13.50;99.90;;;;;;5021207;28;20045;-74
2022/10/27 03:13:16;;;;;;;3.25;2.17;;;13.50;99.90;;;;;;5039381;28;20044;-74
2022/10/27 03:15:45;;;;;;;4.10;2.25;;;13.50;99.90;;;;;;5022229;28;20688;-74
2022/10/27 03:18:12;;;;;;;4.60;2.35;;;13.50;99.90;;;;;;5038190;28;20041;-74
2022/10/27 03:20:38;;;;;;;4.20;1.52;;;13.50;99.90;;;;;;5037817;28;20160;-74
2022/10/27 03:23:03;;;;;;;3.38;1.75;;;13.50;99.90;;;;;;5038564;28;20152;-74
2022/10/27 03:25:29;;;;;;;4.72;1.83;;;13.50;99.90;;;;;;5039392;28;20211;-74
2022/10/27 03:27:55;;;;;;;3.42;1.80;;;13.50;99.90;;;;;;5037646;28;20132;-74
2022/10/27 03:30:20;;;;;;;3.83;2.10;;;13.50;99.90;;;;;;5038136;28;20075;-74
2022/10/27 03:32:50;;;;;;;4.40;2.45;;;13.40;99.90;;;;;;5040931;28;20037;-74
2022/10/27 03:35:18;;;;;;;2.53;1.58;;;13.40;99.90;;;;;;5055855;28;20041;-74
2022/10/27 03:37:44;;;;;;;5.43;1.83;;;13.40;99.90;;;;;;5042902;28;20558;-74
2022/10/27 03:40:10;;;;;;;3.72;2.10;;;13.40;99.90;;;;;;5026690;28;20041;-74
2022/10/27 03:42:41;;;;;;;3.45;1.67;;;13.40;99.90;;;;;;5044213;28;20041;-74
2022/10/27 03:45:08;;;;;;;3.50;2.03;;;13.40;99.90;;;;;;5043422;28;20072;-74
2022/10/27 03:47:33;;;;;;;3.75;1.92;;;13.40;99.90;;;;;;5024801;28;20095;-74
2022/10/27 03:49:59;;;;;;;3.15;1.83;;;13.40;99.90;;;;;;5040935;28;20609;-74
2022/10/27 03:52:24;;;;;;;3.42;2.33;;;13.30;99.90;;;;;;5042618;28;20045;-74
2022/10/27 03:54:50;;;;;;;6.32;2.20;;;13.30;99.90;;;;;;5044300;28;20043;-74
2022/10/27 03:57:15;;;;;;;3.15;1.75;;;13.30;99.90;;;;;;5043591;28;20049;-74
2022/10/27 03:59:41;;;;;;;5.03;2.40;;;13.30;99.90;;;;;;5044313;28;20116;-74
2022/10/27 04:02:07;;;;;;;4.57;2.47;;;13.30;99.90;;;;;;5042698;28;20075;-74
2022/10/27 04:04:32;;;;;;;5.70;2.70;;;13.30;99.90;;;;;;5039626;28;20025;-74
2022/10/27 04:06:58;;;;;;;4.93;2.50;;;13.30;99.90;;;;;;5058968;28;20510;-74
2022/10/27 04:09:23;;;;;;;3.92;1.90;;;13.30;99.90;;;;;;5026431;28;20082;-74
2022/10/27 04:11:49;;;;;;;3.70;2.05;;;13.30;99.90;;;;;;5043093;28;20083;-74
2022/10/27 04:14:14;;;;;;;3.35;2.05;;;13.20;99.90;;;;;;5043757;28;20064;-74
2022/10/27 04:16:40;;;;;;;5.13;2.22;;;13.20;99.90;;;;;;5041327;28;20053;-74
2022/10/27 04:19:06;;;;;;;4.15;2.08;;;13.20;99.90;;;;;;5019932;28;20124;-74
2022/10/27 04:21:31;;;;;;;5.63;2.35;;;13.20;99.90;;;;;;5040075;28;20036;-74
2022/10/27 04:23:57;;;;;;;4.93;2.70;;;13.20;99.90;;;;;;5043584;28;20032;-74
2022/10/27 04:26:22;;;;;;;8.02;2.90;;;13.10;99.90;;;;;;5043704;28;20134;-74
2022/10/27 04:28:48;;;;;;;3.90;2.10;;;13.10;99.90;;;;;;5041700;28;20406;-74
2022/10/27 04:31:14;;;;;;;3.05;1.77;;;13.10;99.90;;;;;;5025587;28;20063;-74
2022/10/27 04:33:40;;;;;;;4.53;2.25;;;13.10;99.90;;;;;;5040907;28;20055;-74
2022/10/27 04:36:06;;;;;;;6.30;3.00;;;13.10;99.90;;;;;;5041794;28;20052;-74
2022/10/27 04:38:31;;;;;;;5.78;2.17;;;13.10;99.90;;;;;;5042521;28;20032;-74
2022/10/27 04:41:00;;;;;;;5.07;1.95;;;13.00;99.90;;;;;;5042350;28;20552;-74
2022/10/27 04:43:27;;;;;;;4.07;2.22;;;13.10;99.90;;;;;;5039820;28;20037;-74
2022/10/27 04:45:52;;;;;;;3.47;2.03;;;13.10;99.90;;;;;;5041660;28;20041;-74
2022/10/27 04:48:18;;;;;;;5.30;2.80;;;13.10;99.90;;;;;;5024079;28;20511;-74
2022/10/27 04:50:43;;;;;;;4.00;2.30;;;13.00;99.90;;;;;;5040359;28;20702;-74
2022/10/27 04:53:09;;;;;;;5.15;2.75;;;13.00;99.90;;;;;;5044261;28;20387;-74
2022/10/27 04:55:34;;;;;;;5.75;2.38;;;13.00;99.90;;;;;;5043159;28;20106;-74
2022/10/27 04:58:00;;;;;;;6.63;2.70;;;13.00;99.90;;;;;;5039822;28;20047;-74
2022/10/27 05:00:26;;;;;;;6.80;2.60;;;13.00;99.90;;;;;;5025724;28;20036;-74
2022/10/27 05:02:54;;;;;;;5.13;2.35;;;13.00;99.90;;;;;;5039865;28;20037;-74
2022/10/27 05:05:20;;;;;;;4.10;2.08;;;13.00;99.90;;;;;;5040871;28;20064;-74
2022/10/27 05:07:59;;;;;;;5.47;2.63;;;13.00;99.90;;;;;;5041629;28;20090;-74
2022/10/27 05:10:25;;;;;;;5.03;2.72;;;13.00;99.90;;;;;;5040740;28;20033;-74
2022/10/27 05:12:51;;;;;;;5.57;2.35;;;13.10;99.90;;;;;;5025092;28;20337;-74
2022/10/27 05:15:16;;;;;;;4.50;2.40;;;13.00;99.90;;;;;;5041037;28;20041;-74
2022/10/27 05:17:42;;;;;;;6.93;2.88;;;13.10;99.90;;;;;;5038104;28;20045;-74
2022/10/27 05:20:09;;;;;;;5.30;2.67;;;13.10;99.90;;;;;;5022123;28;20498;-74
2022/10/27 05:22:34;;;;;;;4.57;2.60;;;13.10;99.90;;;;;;5023804;28;20024;-74
2022/10/27 05:25:00;;;;;;;5.90;2.80;;;13.10;99.90;;;;;;5042361;28;20033;-74
2022/10/27 05:27:26;;;;;;;5.10;2.30;;;13.10;99.90;;;;;;5041650;28;20517;-74
2022/10/27 05:29:51;;;;;;;7.13;3.22;;;13.10;99.90;;;;;;5040816;28;20052;-74
2022/10/27 05:32:17;;;;;;;5.75;2.35;;;13.10;99.90;;;;;;5042438;28;20120;-74
2022/10/27 05:34:43;;;;;;;4.68;2.65;;;13.10;99.90;;;;;;5041123;28;20060;-74
2022/10/27 05:37:09;;;;;;;6.88;2.40;;;13.10;99.90;;;;;;5039997;28;20146;-74
2022/10/27 05:39:35;;;;;;;4.80;2.50;;;13.10;99.90;;;;;;5041499;28;20525;-74
2022/10/27 05:42:00;;;;;;;5.05;2.67;;;13.10;99.90;;;;;;5023504;28;20037;-74
2022/10/27 05:44:26;;;;;;;4.45;2.42;;;13.10;99.90;;;;;;5040372;28;20028;-74
2022/10/27 05:46:51;;;;;;;4.30;2.40;;;13.10;99.90;;;;;;5038514;28;20044;-74
2022/10/27 05:49:17;;;;;;;6.85;2.83;;;13.10;99.90;;;;;;5041061;28;20045;-74
2022/10/27 05:51:43;;;;;;;7.97;2.70;;;13.10;99.90;;;;;;5042596;28;20588;-74
2022/10/27 05:54:08;;;;;;;5.55;2.67;;;13.10;99.90;;;;;;5038734;28;20048;-74
2022/10/27 05:56:34;;;;;;;4.60;2.30;;;13.10;99.90;;;;;;5041355;28;20052;-74
2022/10/27 05:58:59;;;;;;;4.95;2.28;;;13.10;99.90;;;;;;5055859;28;20065;-74
2022/10/27 06:01:25;;;;;;;5.10;2.20;;;13.10;99.90;;;;;;5038943;28;20478;-74
2022/10/27 06:03:50;;;;;;;4.70;2.30;;;13.10;99.90;;;;;;5039864;28;20047;-74
2022/10/27 06:06:16;;;;;;;3.80;2.03;;;13.10;99.90;;;;;;5023452;28;20094;-74
2022/10/27 06:08:42;;;;;;;5.10;2.28;;;13.10;99.90;;;;;;5041656;28;20124;-74
2022/10/27 06:11:07;;;;;;;3.55;2.20;;;13.10;99.90;;;;;;5041670;28;20041;-74
2022/10/27 06:13:33;;;;;;;5.93;2.55;;;13.20;99.90;;;;;;5024167;28;20072;-74
2022/10/27 06:15:58;;;;;;;5.80;2.50;;;13.30;99.90;;;;;;5036854;28;20061;-74
2022/10/27 06:18:24;;;;;;;4.15;2.20;;;13.20;99.90;;;;;;5041616;28;20041;-74
2022/10/27 06:20:50;;;;;;;4.85;2.50;;;13.20;99.90;;;;;;5042150;28;20082;-74
2022/10/27 06:23:15;;;;;;;3.90;1.73;;;13.20;99.90;;;;;;5040208;28;20477;-74
2022/10/27 06:25:41;;;;;;;2.85;1.63;;;13.30;99.90;;;;;;5045074;28;20110;-74
2022/10/27 06:28:07;;;;;;;5.05;2.65;;;13.30;99.90;;;;;;5027817;28;20159;-74
2022/10/27 06:30:33;;;;;;;5.53;2.13;;;13.20;99.90;;;;;;5042331;28;20044;-74
2022/10/27 06:32:58;;;;;;;4.57;2.22;;;13.30;99.90;;;;;;5042270;28;20043;-74
2022/10/27 06:35:24;;;;;;;3.78;2.00;;;13.30;99.90;;;;;;5022916;28;20041;-74
2022/10/27 06:37:49;;;;;;;5.72;2.55;;;13.30;99.90;;;;;;5024206;28;20047;-74
2022/10/27 06:40:17;;;;;;;3.05;1.85;;;13.40;99.90;;;;;;5039027;28;20049;-74
2022/10/27 06:42:43;;;;;;;5.50;2.15;;;13.40;99.90;;;;;;5036677;28;20033;-74
2022/10/27 06:45:09;;;;;;;5.25;2.08;;;13.40;99.90;;;;;;5041129;28;20033;-74
2022/10/27 06:47:35;;;;;;;4.07;2.03;;;13.40;99.90;;;;;;5037751;28;20044;-74
2022/10/27 06:50:00;;;;;;;4.25;2.20;;;13.40;99.90;;;;;;5039176;28;20045;-74
2022/10/27 06:52:26;;;;;;;3.15;1.95;;;13.50;99.90;;;;;;5038321;28;20033;-74
2022/10/27 06:54:52;;;;;;;3.00;2.03;;;13.50;99.90;;;;;;5037661;28;20619;-74
2022/10/27 06:57:18;;;;;;;4.13;2.28;;;13.40;99.90;;;;;;5022300;28;20036;-74
2022/10/27 06:59:43;;;;;;;5.85;2.63;;;13.50;99.90;;;;;;5021620;28;20119;-74
2022/10/27 07:02:10;;;;;;;4.28;2.08;;;13.50;99.90;;;;;;5037581;28;20036;-74
2022/10/27 07:04:36;;;;;;;3.90;2.30;;;13.50;99.90;;;;;;5037237;28;20061;-74
2022/10/27 07:07:02;;;;;;;3.90;1.85;;;13.50;99.90;;;;;;5037048;28;20045;-74
2022/10/27 07:09:28;;;;;;;3.42;2.10;;;13.60;99.90;;;;;;5023286;28;20037;-74
2022/10/27 07:11:53;;;;;;;5.60;2.45;;;13.60;99.90;;;;;;5038893;28;20134;-74
2022/10/27 07:14:19;;;;;;;4.03;1.92;;;13.60;99.90;;;;;;5037455;28;20412;-74
2022/10/27 07:16:47;;;;;;;7.40;2.38;;;13.60;99.90;;;;;;5041460;28;21441;-74
2022/10/27 07:19:13;;;;;;;5.38;2.10;;;13.70;99.90;;;;;;5056290;28;20044;-74
2022/10/27 07:21:38;;;;;;;3.88;2.35;;;13.70;99.90;;;;;;5040979;28;20048;-74
2022/10/27 07:24:04;;;;;;;4.60;2.28;;;13.60;99.90;;;;;;5057929;28;20117;-74
2022/10/27 07:26:30;;;;;;;3.40;1.90;;;13.70;99.90;;;;;;5057113;28;20113;-74
2022/10/27 07:28:55;;;;;;;7.43;1.95;;;13.70;99.90;;;;;;5052777;28;20043;-74
2022/10/27 07:31:21;;;;;;;3.40;2.40;;;13.60;99.90;;;;;;5057146;28;20137;-74
2022/10/27 07:33:46;;;;;;;3.15;1.88;;;13.80;99.90;;;;;;5038717;28;20110;-74
2022/10/27 07:36:12;;;;;;;5.55;2.08;;;13.70;99.90;;;;;;5056781;28;20736;-74
2022/10/27 07:38:38;;;;;;;4.25;2.10;;;13.70;99.90;;;;;;5040678;28;20508;-76
2022/10/27 07:41:04;;;;;;;3.45;2.33;;;13.80;99.90;;;;;;5058142;28;20056;-73
2022/10/27 07:43:30;;;;;;;4.93;1.77;;;13.80;99.90;;;;;;5056384;28;20033;-74
2022/10/27 07:45:55;;;;;;;5.18;1.98;;;13.80;99.90;;;;;;5038342;28;20678;-76
2022/10/27 07:48:21;;;;;;;3.75;1.80;;;13.80;99.90;;;;;;5057117;28;20037;-73
2022/10/27 07:50:46;;;;;;;5.03;1.88;;;13.80;99.90;;;;;;5056625;28;20044;-73
2022/10/27 07:53:16;;;;;;;3.10;1.77;;;13.80;99.90;;;;;;5063973;28;20078;-73
2022/10/27 07:55:42;;;;;;;5.63;2.15;;;13.90;99.90;;;;;;5065510;28;20041;-73
2022/10/27 07:58:16;;;;;;;2.38;1.60;;;13.90;99.90;;;;;;5067023;28;20051;-73
2022/10/27 08:00:44;;;;;;;3.22;1.75;;;13.90;99.90;;;;;;5065123;28;20469;-73
2022/10/27 08:03:21;;;;;;;4.65;2.05;;;13.90;99.90;;;;;;5064133;28;20036;-73
2022/10/27 08:05:47;;;;;;;3.67;2.08;;;13.90;99.90;;;;;;5066039;28;20075;-73
2022/10/27 08:08:14;;;;;;;3.15;1.80;;;13.90;99.90;;;;;;5049670;28;20041;-73
2022/10/27 08:10:41;;;;;;;5.30;2.28;;;14.00;99.90;;;;;;5050180;28;20086;-73
2022/10/27 08:13:07;;;;;;;4.25;2.30;;;14.00;99.90;;;;;;5066119;28;20127;-73
2022/10/27 08:15:34;;;;;;;3.90;1.63;;;14.00;99.90;;;;;;5064385;28;20044;-73
2022/10/27 08:18:01;;;;;;;5.20;2.38;;;14.10;99.90;;;;;;5049192;28;20041;-73
2022/10/27 08:20:30;;;;;;;3.60;1.42;;;14.10;99.90;;;;;;5069734;28;20040;-73
2022/10/27 08:23:04;;;;;;;3.42;1.83;;;14.10;99.90;;;;;;5069362;28;20036;-73
2022/10/27 08:25:30;;;;;;;3.42;1.65;;;14.10;99.90;;;;;;5070183;28;20051;-73
2022/10/27 08:27:57;;;;;;;4.57;2.30;;;14.20;99.90;;;;;;5070668;28;20046;-73
2022/10/27 08:30:25;;;;;;;4.28;2.20;;;14.20;99.90;;;;;;5052842;28;20058;-73
2022/10/27 08:32:55;;;;;;;4.35;1.90;;;14.20;99.90;;;;;;5052317;28;20044;-73
2022/10/27 08:35:20;;;;;;;3.38;1.80;;;14.20;99.90;;;;;;5066918;28;20052;-73
2022/10/27 08:37:46;;;;;;;2.90;1.60;;;14.30;99.90;;;;;;5071179;28;20127;-73
2022/10/27 08:40:12;;;;;;;3.58;1.98;;;14.30;99.90;;;;;;5052967;28;20041;-73
2022/10/27 08:42:40;;;;;;;4.25;2.20;;;14.30;99.90;;;;;;5071880;28;20309;-73
2022/10/27 08:45:18;;;;;;;4.63;2.13;;;14.30;99.90;;;;;;5069268;28;20052;-73
2022/10/27 08:47:45;;;;;;;4.68;1.80;;;14.30;99.90;;;;;;5067788;28;20040;-73
2022/10/27 08:50:21;;;;;;;5.20;1.88;;;14.30;99.90;;;;;;5071430;28;20045;-73
2022/10/27 08:52:59;;;;;;;7.85;2.08;;;14.40;99.90;;;;;;5060596;28;20039;-73
2022/10/27 08:55:28;;;;;;;6.18;2.30;;;14.40;99.90;;;;;;5061597;28;20147;-73
2022/10/27 08:57:58;;;;;;;4.75;2.30;;;14.40;99.90;;;;;;5056341;28;20033;-75
2022/10/27 09:00:24;;;;;;;2.42;1.30;;;14.40;99.90;;;;;;5056094;28;20193;-73
2022/10/27 09:03:04;;;;;;;9.48;2.42;;;14.50;99.90;;;;;;5059074;28;20032;-73
2022/10/27 09:06:07;;;;;;;4.45;1.98;;;14.50;99.90;;;;;;5060191;28;20044;-73
2022/10/27 09:08:45;;;;;;;3.10;1.77;;;14.60;99.90;;;;;;5059055;28;20102;-73
2022/10/27 09:11:29;;;;;;;3.67;2.00;;;14.60;99.90;;;;;;5055134;28;20048;-73
2022/10/27 09:14:16;;;;;;;2.83;1.67;;;14.70;99.90;;;;;;5054506;28;20052;-73
2022/10/27 09:16:43;;;;;;;4.90;1.85;;;14.70;99.90;;;;;;5059033;28;20102;-73
2022/10/27 09:19:22;;;;;;;5.20;1.80;;;14.70;99.90;;;;;;5061143;28;20032;-73
2022/10/27 09:21:49;;;;;;;4.25;1.67;;;14.80;99.90;;;;;;5039666;28;20043;-73
2022/10/27 09:24:19;;;;;;;3.40;1.40;;;14.90;99.90;;;;;;5057362;28;20051;-73
2022/10/27 09:26:46;;;;;;;4.32;1.98;;;14.90;99.90;;;;;;5044327;28;20521;-73
2022/10/27 09:29:22;;;;;;;2.17;1.27;;;15.00;99.90;;;;;;5060512;28;20072;-73
2022/10/27 09:31:54;;;;;;;4.15;1.88;;;15.00;99.90;;;;;;5061538;28;20651;-73
2022/10/27 09:34:34;;;;;;;2.50;1.40;;;15.10;99.90;;;;;;5062222;28;20083;-73
2022/10/27 09:37:00;;;;;;;2.60;1.20;;;15.10;99.90;;;;;;5058884;28;20044;-73
2022/10/27 09:39:26;;;;;;;4.90;1.67;;;15.10;99.90;;;;;;5058442;28;20032;-73
2022/10/27 09:41:52;;;;;;;3.00;1.58;;;15.20;99.90;;;;;;5056862;28;20036;-73
2022/10/27 09:44:23;;;;;;;2.40;1.05;;;15.20;99.90;;;;;;5043306;28;20040;-73
2022/10/27 09:46:54;;;;;;;6.15;1.30;;;15.30;99.90;;;;;;5059211;28;20093;-73
2022/10/27 09:49:26;;;;;;;4.18;1.50;;;15.30;99.90;;;;;;5041430;28;20069;-73
2022/10/27 09:52:10;;;;;;;4.18;1.30;;;15.30;99.90;;;;;;5053870;28;20040;-73
2022/10/27 09:54:38;;;;;;;1.90;1.10;;;15.40;99.90;;;;;;5048240;28;20746;-73
2022/10/27 09:57:11;;;;;;;1.67;0.95;;;15.40;99.90;;;;;;5019041;28;20779;-73
2022/10/27 09:59:38;;;;;;;2.78;1.20;;;15.40;99.90;;;;;;5040290;28;20550;-73
2022/10/27 10:02:18;;;;;;;2.38;1.10;;;15.50;99.90;;;;;;5032475;28;20481;-73
2022/10/27 10:04:46;;;;;;;2.33;1.30;;;15.50;99.90;;;;;;5057346;28;20115;-73
2022/10/27 10:07:30;;;;;;;2.97;1.40;;;15.60;99.90;;;;;;5055930;28;20159;-73
2022/10/27 10:10:21;;;;;;;5.18;1.25;;;15.60;99.90;;;;;;5055747;28;20516;-72
2022/10/27 10:13:05;;;;;;;3.38;1.15;;;15.70;99.90;;;;;;5033192;28;20287;-73
2022/10/27 10:15:42;;;;;;;4.93;1.02;;;15.70;99.90;;;;;;5034384;28;20895;-73
2022/10/27 10:18:27;;;;;;;1.77;0.80;;;15.80;99.90;;;;;;5036135;28;20132;-73
2022/10/27 10:21:06;;;;;;;2.45;0.90;;;15.80;99.90;;;;;;5052600;28;20056;-73
2022/10/27 10:23:45;;;;;;;2.50;1.08;;;15.80;99.90;;;;;;5053598;28;20532;-75
2022/10/27 10:26:19;;;;;;;2.50;1.00;;;15.80;99.90;;;;;;5050359;28;20036;-73
2022/10/27 10:28:46;;;;;;;5.30;0.90;;;15.90;99.90;;;;;;5053593;28;20051;-73
2022/10/27 10:31:15;;;;;;;6.88;0.95;;;16.00;99.90;;;;;;5049463;28;20292;-73
2022/10/27 10:33:45;;;;;;;1.58;0.82;;;16.00;99.90;;;;;;5051279;28;20041;-72
2022/10/27 10:36:35;;;;;;;1.05;0.60;;;16.10;99.90;;;;;;5035628;28;20068;-73
2022/10/27 10:39:19;;;;;;;2.00;0.77;;;16.10;99.90;;;;;;5038251;28;20153;-73
2022/10/27 10:42:04;;;;;;;3.72;0.80;;;16.10;99.90;;;;;;5053099;28;20032;-72
2022/10/27 10:44:30;;;;;;;1.60;0.50;;;16.20;99.90;;;;;;5052914;28;20478;-72
2022/10/27 10:46:56;;;;;;;1.02;0.52;;;16.20;99.90;;;;;;5049188;28;20039;-73
2022/10/27 10:49:29;;;;;;;5.97;0.80;;;16.20;99.90;;;;;;5050701;28;20060;-73
2022/10/27 10:51:59;;;;;;;2.22;0.80;;;16.20;99.90;;;;;;5050310;28;20076;-73
2022/10/27 10:54:31;;;;;;;2.40;0.60;;;16.30;99.90;;;;;;5049545;28;20040;-72
2022/10/27 10:56:57;;;;;;;1.25;0.70;;;16.30;99.90;;;;;;5052776;28;20044;-72
2022/10/27 10:59:29;;;;;;;1.65;0.60;;;16.30;99.90;;;;;;5051599;28;20529;-72
2022/10/27 11:02:19;;;;;;;0.70;0.40;;;16.30;99.90;;;;;;5053659;28;20128;-72
2022/10/27 11:04:48;;;;;;;1.45;0.50;;;16.40;99.90;;;;;;5057474;28;20047;-72
2022/10/27 11:07:24;;;;;;;2.75;0.60;;;16.30;99.90;;;;;;5034944;28;20482;-72
2022/10/27 11:10:08;;;;;;;1.27;0.50;;;16.50;99.90;;;;;;5055487;28;20040;-72
2022/10/27 11:12:39;;;;;;;0.82;0.40;;;16.50;99.90;;;;;;5052211;28;20040;-72
2022/10/27 11:15:48;;;;;;;0.60;0.32;;;16.50;99.90;;;;;;5057865;28;20135;-72
2022/10/27 11:18:22;;;;;;;0.98;0.50;;;16.60;99.90;;;;;;4985159;28;20080;-72
2022/10/27 11:21:02;;;;;;;1.17;0.43;;;16.60;99.90;;;;;;4991445;28;20041;-72
2022/10/27 11:23:44;;;;;;;0.93;0.50;;;16.60;99.90;;;;;;5021647;28;20051;-72
2022/10/27 11:26:12;;;;;;;1.05;0.50;;;16.60;99.90;;;;;;5056351;28;20045;-72
2022/10/27 11:29:03;;;;;;;1.30;0.60;;;16.60;99.90;;;;;;5058339;28;20041;-72
2022/10/27 11:31:35;;;;;;;3.33;0.50;;;16.70;99.90;;;;;;5059972;28;20050;-72
2022/10/27 11:34:39;;;;;;;2.92;0.65;;;16.60;99.90;;;;;;5055353;28;20068;-72
2022/10/27 11:37:12;;;;;;;2.80;0.55;;;16.60;99.90;;;;;;4962357;28;20034;-72
2022/10/27 11:39:58;;;;;;;0.88;0.40;;;16.60;99.90;;;;;;5039774;28;20064;-72
2022/10/27 11:42:40;;;;;;;0.68;0.40;;;16.60;99.90;;;;;;5010585;28;20093;-75
2022/10/27 11:45:15;;;;;;;1.23;0.52;;;16.60;99.90;;;;;;5030411;28;20481;-72
2022/10/27 11:47:49;;;;;;;0.90;0.60;;;16.60;99.90;;;;;;5053792;28;20675;-73
2022/10/27 11:50:29;;;;;;;0.63;0.40;;;16.60;99.90;;;;;;5036753;28;20048;-72
2022/10/27 11:52:57;;;;;;;6.45;0.68;;;16.60;99.90;;;;;;5054479;28;20033;-72
2022/10/27 11:56:02;;;;;;;3.85;0.73;;;16.60;99.90;;;;;;5062022;28;20051;-73
2022/10/27 11:58:58;;;;;;;1.92;0.60;;;16.60;99.90;;;;;;5056239;28;20047;-73
2022/10/27 12:01:45;;;;;;;1.75;0.77;;;16.60;99.90;;;;;;5054504;28;20064;-72
2022/10/27 12:04:32;;;;;;;1.00;0.60;;;16.60;99.90;;;;;;5058981;28;20541;-72
2022/10/27 12:07:43;;;;;;;1.20;0.40;;;16.60;99.90;;;;;;5052469;28;20493;-72
2022/10/27 12:10:21;;;;;;;0.77;0.40;;;16.60;99.90;;;;;;5057932;28;20048;-72
2022/10/27 12:12:53;;;;;;;1.13;0.40;;;16.60;99.90;;;;;;5057172;28;20525;-72
2022/10/27 12:15:40;;;;;;;0.93;0.52;;;16.60;99.90;;;;;;5055568;28;20080;-72
2022/10/27 12:18:23;;;;;;;0.68;0.40;;;16.60;99.90;;;;;;5059673;28;20048;-72
2022/10/27 12:21:13;;;;;;;0.90;0.50;;;16.60;99.90;;;;;;5057362;28;20043;-72
2022/10/27 12:23:59;;;;;;;1.33;0.50;;;16.60;99.90;;;;;;5042546;28;20040;-72
2022/10/27 12:26:46;;;;;;;3.40;0.70;;;16.50;99.90;;;;;;5037674;28;20048;-72
2022/10/27 12:29:15;;;;;;;15.32;4.20;;;16.60;99.90;;;;;;5058170;28;20525;-73
2022/10/27 12:31:58;;;;;;;1.55;0.32;;;16.60;99.90;;;;;;5038006;28;20497;-73
2022/10/27 12:34:30;;;;;;;3.90;0.77;;;16.60;99.90;;;;;;5058660;28;20044;-73
2022/10/27 12:37:07;;;;;;;1.00;0.47;;;16.60;99.90;;;;;;5057068;28;20040;-72
2022/10/27 12:39:42;;;;;;;1.23;0.57;;;16.60;99.90;;;;;;5072270;28;20043;-73
2022/10/27 12:42:30;;;;;;;1.67;0.40;;;16.60;99.90;;;;;;5057860;28;20223;-72
2022/10/27 12:45:13;;;;;;;1.27;0.75;;;16.60;99.90;;;;;;5038099;28;20119;-72
2022/10/27 12:48:07;;;;;;;1.08;0.60;;;16.60;99.90;;;;;;5055821;28;20170;-73
2022/10/27 12:51:14;;;;;;;1.10;0.63;;;16.60;99.90;;;;;;5028029;28;20048;-73
2022/10/27 12:53:54;;;;;;;1.77;0.68;;;16.60;99.90;;;;;;4989380;28;20045;-73
2022/10/27 12:56:51;;;;;;;0.38;0.30;;;16.70;99.90;;;;;;5060308;28;20453;-73
2022/10/27 12:59:32;;;;;;;1.10;0.40;;;16.70;99.90;;;;;;5059373;28;20054;-73
2022/10/27 13:01:59;;;;;;;0.90;0.50;;;16.70;99.90;;;;;;5046235;28;20443;-73
2022/10/27 13:04:49;;;;;;;1.98;0.60;;;16.80;99.90;;;;;;5059268;28;20029;-73
2022/10/27 13:07:42;;;;;;;1.13;0.52;;;16.80;99.90;;;;;;5076384;28;20086;-73
2022/10/27 13:10:33;;;;;;;1.02;0.65;;;16.80;99.90;;;;;;5059128;28;20041;-73